createdAt,value
2022-08-17T00:00:43.005Z,53.58
2022-08-17T00:03:13.573Z,53.50
2022-08-17T00:05:46.596Z,53.67
2022-08-17T00:08:18.331Z,53.35
2022-08-17T00:10:47.979Z,53.61
2022-08-17T00:13:20.124Z,53.66
2022-08-17T00:15:49.383Z,53.77
2022-08-17T00:19:02.080Z,53.79
2022-08-17T00:21:10.399Z,54.02
2022-08-17T00:23:47.974Z,54.09
2022-08-17T00:26:44.496Z,54.16
2022-08-17T00:29:09.259Z,54.37
2022-08-17T00:31:38.605Z,54.47
2022-08-17T00:34:08.568Z,54.20
2022-08-17T00:36:37.383Z,54.25
2022-08-17T00:39:06.434Z,54.46
2022-08-17T00:41:35.488Z,54.51
2022-08-17T00:44:06.061Z,54.57
2022-08-17T00:46:38.679Z,54.66
2022-08-17T00:49:09.019Z,54.88
2022-08-17T00:51:43.863Z,54.90
2022-08-17T00:54:18.033Z,54.94
2022-08-17T00:56:50.518Z,55.03
2022-08-17T00:59:22.797Z,54.83
2022-08-17T01:01:52.077Z,55.20
2022-08-17T01:04:22.215Z,55.19
2022-08-17T01:06:52.841Z,55.08
2022-08-17T01:09:21.793Z,55.04
2022-08-17T01:11:51.780Z,55.23
2022-08-17T01:14:21.793Z,55.12
2022-08-17T01:16:53.513Z,55.23
2022-08-17T01:19:31.667Z,55.33
2022-08-17T01:22:06.445Z,55.45
2022-08-17T01:24:37.102Z,55.25
2022-08-17T01:27:10.260Z,55.59
2022-08-17T01:29:43.598Z,55.68
2022-08-17T01:32:12.899Z,55.65
2022-08-17T01:34:45.528Z,55.65
2022-08-17T01:37:27.213Z,56.05
2022-08-17T01:40:02.567Z,56.15
2022-08-17T01:42:33.123Z,56.24
2022-08-17T01:45:07.675Z,56.35
2022-08-17T01:47:36.978Z,56.24
2022-08-17T01:50:11.931Z,56.42
2022-08-17T01:52:41.788Z,56.40
2022-08-17T01:55:12.968Z,56.40
2022-08-17T01:57:41.787Z,56.60
2022-08-17T02:00:12.792Z,56.68
2022-08-17T02:02:44.425Z,56.78
2022-08-17T02:05:13.397Z,56.87
2022-08-17T02:08:00.064Z,57.07
2022-08-17T02:10:34.066Z,57.19
2022-08-17T02:13:04.177Z,57.31
2022-08-17T02:15:34.170Z,57.54
2022-08-17T02:18:04.179Z,57.59
2022-08-17T02:20:42.044Z,57.57
2022-08-17T02:23:13.944Z,57.62
2022-08-17T02:25:47.144Z,57.82
2022-08-17T02:28:17.251Z,57.80
2022-08-17T02:31:01.331Z,57.84
2022-08-17T02:33:42.491Z,57.95
2022-08-17T02:36:13.683Z,58.05
2022-08-17T02:38:43.437Z,58.01
2022-08-17T02:41:12.743Z,58.13
2022-08-17T02:43:41.936Z,58.21
2022-08-17T02:46:12.167Z,58.17
2022-08-17T02:48:41.456Z,58.32
2022-08-17T02:51:10.614Z,58.37
2022-08-17T02:53:39.524Z,58.49
2022-08-17T02:56:08.590Z,58.66
2022-08-17T02:58:37.930Z,58.61
2022-08-17T03:01:09.201Z,58.81
2022-08-17T03:03:39.135Z,58.84
2022-08-17T03:06:09.325Z,59.01
2022-08-17T03:08:38.210Z,59.10
2022-08-17T03:11:07.032Z,59.08
2022-08-17T03:13:35.821Z,59.07
2022-08-17T03:16:05.076Z,59.10
2022-08-17T03:18:33.969Z,59.15
2022-08-17T03:21:03.903Z,59.26
2022-08-17T03:23:33.403Z,59.30
2022-08-17T03:26:02.262Z,59.27
2022-08-17T03:28:31.049Z,59.41
2022-08-17T03:30:59.997Z,59.48
2022-08-17T03:33:29.055Z,59.59
2022-08-17T03:35:58.879Z,59.63
2022-08-17T03:38:27.803Z,59.65
2022-08-17T03:40:59.775Z,59.63
2022-08-17T03:43:31.820Z,59.79
2022-08-17T03:46:28.691Z,59.73
2022-08-17T03:49:23.553Z,59.83
2022-08-17T03:52:10.848Z,59.98
2022-08-17T03:54:59.033Z,59.87
2022-08-17T03:57:28.605Z,60.00
2022-08-17T03:59:57.973Z,59.96
2022-08-17T04:02:29.269Z,60.15
2022-08-17T04:04:58.673Z,60.13
2022-08-17T04:07:29.754Z,60.25
2022-08-17T04:09:59.231Z,60.19
2022-08-17T04:12:30.120Z,60.31
2022-08-17T04:14:59.202Z,60.30
2022-08-17T04:17:29.344Z,60.36
2022-08-17T04:19:58.380Z,60.40
2022-08-17T04:22:30.823Z,60.34
2022-08-17T04:25:07.638Z,60.39
2022-08-17T04:27:36.534Z,60.29
2022-08-17T04:30:07.334Z,60.32
2022-08-17T04:35:41.351Z,60.36
2022-08-17T04:38:16.076Z,60.25
2022-08-17T04:41:05.673Z,60.21
2022-08-17T04:43:39.533Z,60.22
2022-08-17T04:46:13.830Z,60.33
2022-08-17T04:48:48.460Z,60.21
2022-08-17T04:51:25.166Z,60.25
2022-08-17T04:54:00.607Z,60.31
2022-08-17T04:56:31.522Z,60.09
2022-08-17T04:59:07.590Z,60.31
2022-08-17T05:01:42.410Z,60.02
2022-08-17T05:04:20.930Z,60.10
2022-08-17T05:07:05.785Z,59.97
2022-08-17T05:09:37.945Z,60.02
2022-08-17T05:12:10.678Z,59.97
2022-08-17T05:14:43.163Z,59.93
2022-08-17T05:17:15.441Z,59.91
2022-08-17T05:19:51.749Z,60.04
2022-08-17T05:22:24.371Z,60.15
2022-08-17T05:24:56.589Z,59.98
2022-08-17T05:27:35.084Z,59.91
2022-08-17T05:30:09.538Z,59.56
2022-08-17T05:32:41.748Z,59.25
2022-08-17T05:35:13.948Z,59.45
2022-08-17T05:37:46.118Z,59.41
2022-08-17T05:40:19.086Z,59.07
2022-08-17T05:42:51.865Z,59.08
2022-08-17T05:45:54.135Z,58.75
2022-08-17T05:48:18.762Z,58.51
2022-08-17T05:50:57.200Z,58.52
2022-08-17T05:53:35.214Z,58.50
2022-08-17T05:56:29.611Z,58.31
2022-08-17T05:59:12.086Z,58.40
2022-08-17T06:01:53.067Z,58.37
2022-08-17T06:04:38.034Z,58.63
2022-08-17T06:07:19.041Z,58.23
2022-08-17T06:09:57.455Z,58.59
2022-08-17T06:12:43.700Z,58.07
2022-08-17T06:15:29.941Z,58.03
2022-08-17T06:18:05.653Z,58.15
2022-08-17T06:20:48.393Z,57.97
2022-08-17T06:23:28.460Z,57.65
2022-08-17T06:26:05.312Z,57.49
2022-08-17T06:28:43.106Z,56.92
2022-08-17T06:31:22.504Z,57.12
2022-08-17T06:33:55.253Z,56.61
2022-08-17T06:36:45.883Z,56.39
2022-08-17T06:39:33.955Z,56.69
2022-08-17T06:42:59.871Z,56.33
2022-08-17T06:45:19.382Z,56.04
2022-08-17T06:47:59.775Z,55.98
2022-08-17T06:50:37.735Z,55.37
2022-08-17T06:53:22.225Z,55.09
2022-08-17T06:56:01.162Z,55.11
2022-08-17T06:58:35.887Z,54.78
2022-08-17T07:01:15.505Z,54.54
2022-08-17T07:03:55.076Z,54.07
2022-08-17T07:06:38.119Z,53.60
2022-08-17T07:09:18.347Z,53.27
2022-08-17T07:11:55.814Z,52.70
2022-08-17T07:14:44.568Z,52.45
2022-08-17T07:17:20.696Z,52.41
2022-08-17T07:19:58.639Z,51.94
2022-08-17T07:22:54.816Z,51.64
2022-08-17T07:25:32.759Z,51.10
2022-08-17T07:28:07.927Z,50.70
2022-08-17T07:30:54.983Z,50.21
2022-08-17T07:33:31.591Z,49.66
2022-08-17T07:36:03.885Z,48.93
2022-08-17T07:38:55.461Z,48.64
2022-08-17T07:41:27.866Z,48.30
2022-08-17T07:44:20.043Z,47.85
2022-08-17T07:47:12.281Z,47.49
2022-08-17T07:49:47.528Z,46.84
2022-08-17T07:52:51.971Z,46.46
2022-08-17T07:55:35.074Z,45.61
2022-08-17T07:58:07.322Z,45.39
2022-08-17T08:00:39.727Z,44.74
2022-08-17T08:03:28.650Z,44.49
2022-08-17T08:06:03.644Z,44.23
2022-08-17T08:08:39.364Z,43.52
2022-08-17T08:11:11.087Z,43.30
2022-08-17T08:13:45.871Z,42.71
2022-08-17T08:16:30.422Z,42.33
2022-08-17T08:19:03.642Z,41.64
2022-08-17T08:21:44.105Z,41.54
2022-08-17T08:24:33.472Z,40.86
2022-08-17T08:27:23.315Z,40.87
2022-08-17T08:30:05.096Z,40.58
2022-08-17T08:32:50.646Z,39.82
2022-08-17T08:35:32.628Z,39.06
2022-08-17T08:38:16.669Z,38.91
2022-08-17T08:41:09.146Z,38.66
2022-08-17T08:43:53.245Z,38.01
2022-08-17T08:46:35.472Z,37.93
2022-08-17T08:49:45.570Z,37.31
2022-08-17T08:52:32.445Z,37.01
2022-08-17T08:55:12.376Z,37.11
2022-08-17T08:57:51.170Z,36.68
2022-08-17T09:00:26.355Z,36.15
2022-08-17T09:03:20.254Z,35.49
2022-08-17T09:06:37.902Z,35.18
2022-08-17T09:09:11.588Z,34.60
2022-08-17T09:12:01.411Z,34.64
2022-08-17T09:14:45.402Z,34.09
2022-08-17T09:17:22.702Z,34.19
2022-08-17T09:20:04.085Z,33.96
2022-08-17T09:22:42.811Z,33.62
2022-08-17T09:25:18.234Z,33.41
2022-08-17T09:27:57.461Z,32.79
2022-08-17T09:30:42.413Z,32.25
2022-08-17T09:33:18.703Z,31.99
2022-08-17T09:35:55.046Z,32.12
2022-08-17T09:38:35.691Z,31.85
2022-08-17T09:41:17.720Z,31.41
2022-08-17T09:44:01.835Z,31.12
2022-08-17T09:46:39.249Z,30.98
2022-08-17T09:49:25.030Z,30.95
2022-08-17T09:52:02.437Z,30.70
2022-08-17T09:54:39.734Z,29.95
2022-08-17T09:57:31.060Z,30.09
2022-08-17T10:00:23.804Z,29.98
2022-08-17T10:03:16.387Z,29.61
2022-08-17T10:05:56.568Z,29.46
2022-08-17T10:08:37.461Z,29.55
2022-08-17T10:11:22.604Z,29.38
2022-08-17T10:14:36.720Z,28.93
2022-08-17T10:17:16.843Z,29.03
2022-08-17T10:20:00.361Z,29.06
2022-08-17T10:22:56.976Z,28.82
2022-08-17T10:25:55.063Z,28.86
2022-08-17T10:28:31.640Z,28.76
2022-08-17T10:34:19.256Z,28.70
2022-08-17T10:37:00.718Z,28.63
2022-08-17T10:39:51.952Z,28.52
2022-08-17T10:42:33.360Z,28.20
2022-08-17T10:45:16.821Z,27.95
2022-08-17T10:48:05.829Z,27.85
2022-08-17T10:51:08.382Z,27.74
2022-08-17T10:54:02.052Z,27.85
2022-08-17T10:56:50.532Z,27.44
2022-08-17T10:59:58.361Z,27.33
2022-08-17T11:02:40.833Z,27.50
2022-08-17T11:05:44.018Z,27.44
2022-08-17T11:08:51.813Z,27.29
2022-08-17T11:11:47.572Z,27.56
2022-08-17T11:14:29.984Z,27.56
2022-08-17T11:17:16.703Z,27.55
2022-08-17T11:20:07.748Z,27.49
2022-08-17T11:23:11.017Z,27.66
2022-08-17T11:25:48.624Z,27.57
2022-08-17T11:28:24.692Z,27.41
2022-08-17T11:31:00.240Z,27.45
2022-08-17T11:33:54.528Z,27.41
2022-08-17T11:37:02.652Z,27.19
2022-08-17T11:40:06.703Z,27.51
2022-08-17T11:42:58.076Z,27.24
2022-08-17T11:45:52.970Z,27.34
2022-08-17T11:48:54.542Z,27.56
2022-08-17T11:51:47.810Z,27.51
2022-08-17T11:54:43.344Z,27.71
2022-08-17T11:58:06.709Z,27.68
2022-08-17T12:00:57.915Z,27.39
2022-08-17T12:03:54.458Z,27.29
2022-08-17T12:06:42.638Z,27.69
2022-08-17T12:09:21.047Z,27.63
2022-08-17T12:12:12.445Z,27.59
2022-08-17T12:15:12.920Z,27.57
2022-08-17T12:17:52.622Z,27.40
2022-08-17T12:20:30.482Z,27.59
2022-08-17T12:23:10.625Z,27.41
2022-08-17T12:25:49.585Z,27.74
2022-08-17T12:28:30.787Z,27.52
2022-08-17T12:31:07.139Z,27.38
2022-08-17T12:33:43.967Z,27.48
2022-08-17T12:36:21.104Z,27.39
2022-08-17T12:38:59.607Z,27.44
2022-08-17T12:41:48.049Z,27.36
2022-08-17T12:44:25.167Z,27.24
2022-08-17T12:47:04.719Z,27.12
2022-08-17T12:49:39.479Z,27.01
2022-08-17T12:52:14.450Z,27.04
2022-08-17T12:54:53.785Z,26.75
2022-08-17T12:57:28.479Z,26.74
2022-08-17T13:00:00.981Z,26.79
2022-08-17T13:02:44.079Z,26.94
2022-08-17T13:05:25.364Z,26.94
2022-08-17T13:07:59.763Z,27.30
2022-08-17T13:10:34.009Z,26.86
2022-08-17T13:13:26.160Z,27.00
2022-08-17T13:16:00.981Z,27.17
2022-08-17T13:18:39.181Z,27.07
2022-08-17T13:21:23.314Z,27.19
2022-08-17T13:24:06.033Z,27.27
2022-08-17T13:26:41.488Z,27.28
2022-08-17T13:29:24.102Z,27.52
2022-08-17T13:32:14.389Z,27.22
2022-08-17T13:35:16.257Z,26.97
2022-08-17T13:37:42.621Z,27.20
2022-08-17T13:40:37.102Z,27.33
2022-08-17T13:43:09.979Z,27.27
2022-08-17T13:45:52.633Z,27.42
2022-08-17T13:48:30.332Z,27.49
2022-08-17T13:51:21.160Z,27.19
2022-08-17T13:53:59.393Z,27.99
2022-08-17T13:56:40.093Z,28.23
2022-08-17T13:59:16.398Z,28.24
2022-08-17T14:01:53.774Z,28.40
2022-08-17T14:04:29.477Z,28.76
2022-08-17T14:07:23.393Z,29.13
2022-08-17T14:09:59.364Z,28.85
2022-08-17T14:12:34.475Z,28.99
2022-08-17T14:15:08.473Z,29.27
2022-08-17T14:17:40.938Z,29.43
2022-08-17T14:20:15.362Z,29.56
2022-08-17T14:22:51.101Z,29.90
2022-08-17T14:25:25.093Z,30.17
2022-08-17T14:27:57.709Z,30.05
2022-08-17T14:30:30.981Z,30.29
2022-08-17T14:33:03.277Z,30.42
2022-08-17T14:35:35.608Z,30.62
2022-08-17T14:38:08.115Z,30.71
2022-08-17T14:40:41.206Z,30.58
2022-08-17T14:43:13.433Z,31.01
2022-08-17T14:45:45.732Z,30.94
2022-08-17T14:48:17.961Z,30.96
2022-08-17T14:50:50.149Z,31.13
2022-08-17T14:53:22.314Z,31.13
2022-08-17T14:55:54.549Z,31.27
2022-08-17T14:58:26.774Z,31.37
2022-08-17T15:00:59.095Z,31.40
2022-08-17T15:03:31.544Z,31.29
2022-08-17T15:06:03.998Z,31.35
2022-08-17T15:08:36.438Z,31.23
2022-08-17T15:11:14.263Z,31.30
2022-08-17T15:13:52.492Z,31.46
2022-08-17T15:16:26.286Z,31.31
2022-08-17T15:18:58.465Z,31.27
2022-08-17T15:21:31.111Z,31.54
2022-08-17T15:24:03.309Z,31.48
2022-08-17T15:26:37.002Z,31.67
2022-08-17T15:29:09.617Z,31.56
2022-08-17T15:31:42.268Z,31.47
2022-08-17T15:34:14.487Z,31.50
2022-08-17T15:36:49.513Z,31.36
2022-08-17T15:39:22.244Z,31.29
2022-08-17T15:41:58.659Z,31.39
2022-08-17T15:44:34.798Z,31.20
2022-08-17T15:47:07.637Z,31.36
2022-08-17T15:49:42.323Z,31.24
2022-08-17T15:52:21.580Z,31.51
2022-08-17T15:54:55.804Z,31.36
2022-08-17T15:57:29.027Z,31.21
2022-08-17T16:00:01.415Z,31.48
2022-08-17T16:03:44.760Z,31.51
2022-08-17T16:05:31.212Z,31.53
2022-08-17T16:08:03.911Z,31.23
2022-08-17T16:10:36.201Z,31.20
2022-08-17T16:13:17.372Z,31.17
2022-08-17T16:15:56.696Z,31.12
2022-08-17T16:18:32.077Z,31.06
2022-08-17T16:21:21.552Z,31.22
2022-08-17T16:23:56.910Z,31.13
2022-08-17T16:26:30.643Z,31.09
2022-08-17T16:29:06.272Z,31.27
2022-08-17T16:31:38.904Z,31.27
2022-08-17T16:34:17.505Z,31.55
2022-08-17T16:36:56.022Z,31.26
2022-08-17T16:39:30.922Z,31.63
2022-08-17T16:42:03.137Z,31.56
2022-08-17T16:44:35.718Z,31.50
2022-08-17T16:47:09.896Z,31.72
2022-08-17T16:49:42.083Z,32.02
2022-08-17T16:52:15.069Z,32.23
2022-08-17T16:55:06.513Z,32.67
2022-08-17T16:57:38.803Z,32.85
2022-08-17T17:00:21.166Z,33.26
2022-08-17T17:02:54.764Z,33.37
2022-08-17T17:05:42.432Z,33.52
2022-08-17T17:08:21.192Z,33.40
2022-08-17T17:10:56.565Z,33.47
2022-08-17T17:13:32.294Z,33.27
2022-08-17T17:16:15.895Z,33.76
2022-08-17T17:19:01.815Z,34.03
2022-08-17T17:21:39.098Z,34.25
2022-08-17T17:24:16.511Z,34.78
2022-08-17T17:27:07.118Z,34.98
2022-08-17T17:29:53.267Z,35.17
2022-08-17T17:32:38.298Z,35.13
2022-08-17T17:35:17.179Z,35.61
2022-08-17T17:37:51.522Z,35.83
2022-08-17T17:40:26.725Z,35.85
2022-08-17T17:43:14.303Z,35.86
2022-08-17T17:45:55.112Z,36.09
2022-08-17T17:48:29.363Z,36.24
2022-08-17T17:51:11.984Z,36.27
2022-08-17T17:53:55.215Z,36.66
2022-08-17T17:56:39.869Z,36.85
2022-08-17T17:59:27.157Z,37.12
2022-08-17T18:02:08.822Z,37.36
2022-08-17T18:04:51.336Z,37.53
2022-08-17T18:07:33.459Z,37.58
2022-08-17T18:10:29.463Z,37.59
2022-08-17T18:13:11.806Z,37.78
2022-08-17T18:15:51.407Z,38.18
2022-08-17T18:18:39.833Z,38.31
2022-08-17T18:21:19.514Z,38.60
2022-08-17T18:23:56.854Z,38.52
2022-08-17T18:26:53.267Z,38.72
2022-08-17T18:29:42.486Z,38.76
2022-08-17T18:32:36.328Z,38.59
2022-08-17T18:35:30.910Z,38.96
2022-08-17T18:38:23.248Z,39.03
2022-08-17T18:41:18.860Z,39.01
2022-08-17T18:44:03.663Z,39.38
2022-08-17T18:46:37.940Z,39.59
2022-08-17T18:49:28.809Z,39.70
2022-08-17T18:52:15.436Z,39.61
2022-08-17T18:55:09.861Z,39.83
2022-08-17T18:57:45.607Z,40.23
2022-08-17T19:00:22.683Z,40.27
2022-08-17T19:02:58.363Z,40.55
2022-08-17T19:05:36.782Z,40.72
2022-08-17T19:08:25.287Z,40.80
2022-08-17T19:11:02.472Z,41.03
2022-08-17T19:13:41.155Z,41.09
2022-08-17T19:16:18.715Z,41.49
2022-08-17T19:18:58.728Z,41.57
2022-08-17T19:21:40.460Z,41.71
2022-08-17T19:24:19.687Z,41.73
2022-08-17T19:26:57.802Z,41.90
2022-08-17T19:29:38.896Z,42.04
2022-08-17T19:32:21.909Z,42.02
2022-08-17T19:34:54.531Z,42.26
2022-08-17T19:37:36.877Z,42.46
2022-08-17T19:40:51.052Z,42.35
2022-08-17T19:43:24.652Z,42.42
2022-08-17T19:46:06.113Z,42.47
2022-08-17T19:48:51.849Z,42.24
2022-08-17T19:51:35.397Z,42.44
2022-08-17T19:54:16.005Z,42.40
2022-08-17T19:56:56.825Z,42.29
2022-08-17T19:59:48.739Z,42.34
2022-08-17T20:02:32.396Z,42.44
2022-08-17T20:05:07.781Z,42.65
2022-08-17T20:07:48.633Z,42.64
2022-08-17T20:10:30.281Z,42.79
2022-08-17T20:13:09.408Z,42.76
2022-08-17T20:15:43.629Z,42.78
2022-08-17T20:18:25.032Z,42.93
2022-08-17T20:21:02.960Z,42.94
2022-08-17T20:23:46.488Z,42.99
2022-08-17T20:26:26.578Z,43.23
2022-08-17T20:29:37.422Z,43.30
2022-08-17T20:32:27.395Z,43.70
2022-08-17T20:35:21.182Z,44.03
2022-08-17T20:37:59.866Z,44.10
2022-08-17T20:40:39.403Z,43.98
2022-08-17T20:43:45.763Z,44.07
2022-08-17T20:46:32.748Z,44.15
2022-08-17T20:49:26.214Z,44.47
2022-08-17T20:52:08.411Z,44.47
2022-08-17T20:54:53.076Z,44.61
2022-08-17T20:57:50.791Z,44.57
2022-08-17T21:00:50.327Z,44.30
2022-08-17T21:03:50.997Z,44.42
2022-08-17T21:06:26.939Z,44.27
2022-08-17T21:08:59.641Z,44.20
2022-08-17T21:12:04.012Z,44.06
2022-08-17T21:14:57.494Z,44.19
2022-08-17T21:17:46.538Z,44.21
2022-08-17T21:20:32.608Z,44.16
2022-08-17T21:23:25.613Z,44.31
2022-08-17T21:26:30.399Z,44.43
2022-08-17T21:29:29.964Z,44.28
2022-08-17T21:32:28.560Z,44.30
2022-08-17T21:35:47.296Z,44.34
2022-08-17T21:38:22.517Z,44.39
2022-08-17T21:40:54.497Z,44.46
2022-08-17T21:43:32.618Z,44.45
2022-08-17T21:46:09.623Z,44.48
2022-08-17T21:48:49.438Z,44.38
2022-08-17T21:51:30.306Z,44.51
2022-08-17T21:54:06.129Z,44.54
2022-08-17T21:56:42.935Z,44.68
2022-08-17T21:59:27.405Z,44.77
2022-08-17T22:02:02.155Z,44.94
2022-08-17T22:04:36.419Z,45.00
2022-08-17T22:07:11.316Z,45.10
2022-08-17T22:09:47.293Z,45.20
2022-08-17T22:12:21.607Z,45.46
2022-08-17T22:15:04.374Z,45.58
2022-08-17T22:17:40.488Z,45.75
2022-08-17T22:20:16.879Z,45.74
2022-08-17T22:23:30.017Z,45.89
2022-08-17T22:26:05.212Z,46.06
2022-08-17T22:28:46.949Z,46.23
2022-08-17T22:31:20.845Z,46.27
2022-08-17T22:34:07.986Z,46.46
2022-08-17T22:36:41.991Z,46.46
2022-08-17T22:39:42.868Z,46.48
2022-08-17T22:42:18.031Z,46.70
2022-08-17T22:44:53.421Z,46.91
2022-08-17T22:47:38.767Z,46.96
2022-08-17T22:50:23.406Z,46.80
2022-08-17T22:53:22.320Z,47.12
2022-08-17T22:56:14.999Z,47.04
2022-08-17T22:59:11.479Z,47.17
2022-08-17T23:01:46.544Z,47.30
2022-08-17T23:04:37.269Z,47.56
2022-08-17T23:07:09.720Z,47.55
2022-08-17T23:09:41.893Z,47.54
2022-08-17T23:12:27.955Z,47.44
2022-08-17T23:15:04.782Z,47.59
2022-08-17T23:17:37.672Z,47.71
2022-08-17T23:20:13.992Z,47.78
2022-08-17T23:22:51.723Z,47.92
2022-08-17T23:25:29.208Z,47.90
2022-08-17T23:28:03.009Z,47.97
2022-08-17T23:30:38.267Z,47.98
2022-08-17T23:33:11.552Z,48.12
2022-08-17T23:35:44.754Z,48.01
2022-08-17T23:38:17.246Z,48.09
2022-08-17T23:40:49.462Z,48.15
2022-08-17T23:43:25.331Z,48.16
2022-08-17T23:45:59.844Z,48.36
2022-08-17T23:48:36.677Z,48.37
2022-08-17T23:51:14.007Z,48.45
2022-08-17T23:53:50.186Z,48.33
2022-08-17T23:56:24.716Z,48.23
2022-08-17T23:58:58.636Z,48.37
